createdAt,value
2019-05-12T00:01:00.982Z,102333.05
2019-05-12T00:03:29.775Z,102335.68
2019-05-12T00:10:35.264Z,102341.49
2019-05-12T00:16:38.362Z,102348.30
2019-05-12T00:19:10.739Z,102352.19
2019-05-12T00:21:40.065Z,102357.84
2019-05-12T00:27:41.659Z,102361.30
2019-05-12T00:33:20.308Z,102361.30
2019-05-12T00:35:49.641Z,102363.04
2019-05-12T00:41:58.693Z,102361.15
2019-05-12T00:44:33.593Z,102375.67
2019-05-12T00:53:43.536Z,102396.75
2019-05-12T00:56:22.636Z,102397.28
2019-05-12T00:58:54.238Z,102397.56
2019-05-12T01:01:23.454Z,102410.32
2019-05-12T01:03:52.567Z,102414.03
2019-05-12T01:06:22.536Z,102418.38
2019-05-12T01:08:51.591Z,102422.03
2019-05-12T01:11:20.360Z,102426.34
2019-05-12T01:13:49.265Z,102430.48
2019-05-12T01:16:18.411Z,102441.74
2019-05-12T01:18:47.989Z,102436.91
2019-05-12T01:21:18.504Z,102445.24
2019-05-12T01:23:56.363Z,102445.56
2019-05-12T01:26:18.110Z,102451.89
2019-05-12T01:28:48.788Z,102452.79
2019-05-12T01:31:19.042Z,102456.05
2019-05-12T01:33:48.603Z,102461.55
2019-05-12T01:36:18.601Z,102459.70
2019-05-12T01:38:48.327Z,102462.92
2019-05-12T01:41:18.030Z,102468.31
2019-05-12T01:43:49.925Z,102475.38
2019-05-12T01:46:18.940Z,102478.25
2019-05-12T01:48:48.377Z,102480.51
2019-05-12T01:51:17.864Z,102480.30
2019-05-12T01:53:48.283Z,102479.91
2019-05-12T01:56:18.223Z,102491.06
2019-05-12T01:58:48.497Z,102496.15
2019-05-12T02:01:18.508Z,102500.45
2019-05-12T02:03:48.084Z,102498.80
2019-05-12T02:06:18.568Z,102510.20
2019-05-12T02:08:52.429Z,102504.06
2019-05-12T02:11:33.490Z,102503.61
2019-05-12T02:14:03.572Z,102510.97
2019-05-12T02:16:32.519Z,102509.24
2019-05-12T02:19:01.399Z,102521.20
2019-05-12T02:21:30.240Z,102519.42
2019-05-12T02:23:59.218Z,102518.18
2019-05-12T02:26:29.028Z,102525.66
2019-05-12T02:28:58.611Z,102527.92
2019-05-12T02:31:29.551Z,102535.69
2019-05-12T02:33:58.087Z,102539.20
2019-05-12T02:36:28.004Z,102537.11
2019-05-12T02:38:56.859Z,102534.89
2019-05-12T02:41:26.311Z,102536.48
2019-05-12T02:43:58.105Z,102539.00
2019-05-12T02:46:27.213Z,102541.54
2019-05-12T02:48:55.979Z,102546.13
2019-05-12T02:51:25.173Z,102552.09
2019-05-12T02:53:55.452Z,102551.13
2019-05-12T02:56:26.157Z,102551.92
2019-05-12T02:58:55.954Z,102562.06
2019-05-12T03:01:28.170Z,102556.88
2019-05-12T03:03:58.379Z,102561.17
2019-05-12T03:06:29.462Z,102571.23
2019-05-12T03:09:04.855Z,102567.70
2019-05-12T03:11:35.457Z,102563.23
2019-05-12T03:14:04.262Z,102571.28
2019-05-12T03:16:34.967Z,102574.66
2019-05-12T03:19:04.936Z,102578.29
2019-05-12T03:21:35.153Z,102578.20
2019-05-12T03:24:06.137Z,102586.52
2019-05-12T03:26:35.404Z,102582.17
2019-05-12T03:29:05.601Z,102590.92
2019-05-12T03:31:39.718Z,102587.36
2019-05-12T03:34:09.808Z,102590.05
2019-05-12T03:36:41.831Z,102590.42
2019-05-12T03:39:08.327Z,102590.48
2019-05-12T03:41:37.296Z,102593.84
2019-05-12T03:44:07.163Z,102600.95
2019-05-12T03:46:35.960Z,102602.36
2019-05-12T03:49:05.597Z,102605.31
2019-05-12T03:51:35.243Z,102607.18
2019-05-12T03:54:04.917Z,102612.87
2019-05-12T03:56:34.783Z,102613.72
2019-05-12T03:59:05.069Z,102617.27
2019-05-12T04:01:36.329Z,102618.57
2019-05-12T04:04:06.096Z,102620.70
2019-05-12T04:06:35.257Z,102625.03
2019-05-12T04:09:06.727Z,102629.80
2019-05-12T04:11:35.967Z,102629.77
2019-05-12T04:14:05.793Z,102631.42
2019-05-12T04:16:36.358Z,102637.80
2019-05-12T04:19:05.938Z,102640.53
2019-05-12T04:21:35.432Z,102646.53
2019-05-12T04:24:05.988Z,102654.25
2019-05-12T04:26:36.657Z,102658.07
2019-05-12T04:29:06.184Z,102668.46
2019-05-12T04:31:36.025Z,102671.38
2019-05-12T04:34:05.448Z,102668.84
2019-05-12T04:36:35.753Z,102672.63
2019-05-12T04:39:07.221Z,102676.10
2019-05-12T04:41:36.471Z,102681.11
2019-05-12T04:44:06.150Z,102681.17
2019-05-12T04:46:36.884Z,102678.91
2019-05-12T04:49:05.892Z,102679.92
2019-05-12T04:51:35.363Z,102687.65
2019-05-12T04:54:05.719Z,102689.00
2019-05-12T04:56:36.021Z,102692.56
2019-05-12T04:59:05.474Z,102696.23
2019-05-12T05:01:35.018Z,102699.19
2019-05-12T05:04:05.333Z,102696.84
2019-05-12T05:06:34.815Z,102708.75
2019-05-12T05:09:05.249Z,102714.47
2019-05-12T05:11:34.660Z,102712.66
2019-05-12T05:14:04.365Z,102722.42
2019-05-12T05:16:34.599Z,102716.39
2019-05-12T05:19:03.874Z,102719.20
2019-05-12T05:21:34.532Z,102711.11
2019-05-12T05:24:03.891Z,102706.20
2019-05-12T05:26:37.313Z,102708.75
2019-05-12T05:29:04.742Z,102705.16
2019-05-12T05:31:33.946Z,102695.73
2019-05-12T05:34:04.750Z,102698.30
2019-05-12T05:36:34.664Z,102704.30
2019-05-12T05:39:07.312Z,102705.09
2019-05-12T05:41:40.186Z,102703.70
2019-05-12T05:44:07.042Z,102705.80
2019-05-12T05:46:38.983Z,102713.11
2019-05-12T05:49:06.644Z,102711.31
2019-05-12T05:51:39.630Z,102719.87
2019-05-12T05:54:06.095Z,102738.14
2019-05-12T05:59:31.264Z,102731.97
2019-05-12T06:01:54.851Z,102736.38
2019-05-12T06:04:23.940Z,102734.40
2019-05-12T06:06:55.714Z,102737.82
2019-05-12T06:09:23.703Z,102742.25
2019-05-12T06:11:54.195Z,102745.56
2019-05-12T06:14:23.588Z,102747.77
2019-05-12T06:16:53.787Z,102755.19
2019-05-12T06:19:25.985Z,102760.41
2019-05-12T06:21:53.604Z,102753.36
2019-05-12T06:24:23.875Z,102752.92
2019-05-12T06:26:59.538Z,102761.84
2019-05-12T06:29:25.145Z,102757.88
2019-05-12T06:31:54.405Z,102765.55
2019-05-12T06:34:23.823Z,102770.41
2019-05-12T06:36:57.037Z,102774.84
2019-05-12T06:39:23.648Z,102779.11
2019-05-12T06:41:55.192Z,102766.27
2019-05-12T06:44:24.030Z,102783.66
2019-05-12T06:47:02.454Z,102775.00
2019-05-12T06:49:24.595Z,102782.22
2019-05-12T06:52:01.447Z,102792.19
2019-05-12T06:54:25.486Z,102793.98
2019-05-12T06:56:57.930Z,102799.06
2019-05-12T06:59:25.960Z,102795.16
2019-05-12T07:02:00.197Z,102810.37
2019-05-12T07:04:25.407Z,102817.94
2019-05-12T07:06:56.153Z,102823.45
2019-05-12T07:09:28.726Z,102833.94
2019-05-12T07:12:02.676Z,102825.26
2019-05-12T07:14:34.533Z,102825.53
2019-05-12T07:17:10.192Z,102825.55
2019-05-12T07:19:39.067Z,102822.67
2019-05-12T07:22:19.881Z,102830.56
2019-05-12T07:24:40.869Z,102829.94
2019-05-12T07:27:10.070Z,102840.88
2019-05-12T07:29:39.071Z,102842.55
2019-05-12T07:32:16.536Z,102846.67
2019-05-12T07:34:38.937Z,102849.20
2019-05-12T07:37:08.008Z,102848.68
2019-05-12T07:39:47.800Z,102849.61
2019-05-12T07:42:13.393Z,102853.64
2019-05-12T07:44:45.220Z,102852.61
2019-05-12T07:47:14.224Z,102849.84
2019-05-12T07:49:44.091Z,102855.58
2019-05-12T07:52:13.787Z,102852.14
2019-05-12T07:54:44.469Z,102850.50
2019-05-12T07:57:17.321Z,102852.53
2019-05-12T07:59:45.907Z,102846.11
2019-05-12T08:02:14.828Z,102846.62
2019-05-12T08:04:44.088Z,102854.66
2019-05-12T08:07:19.742Z,102850.80
2019-05-12T08:09:53.630Z,102856.61
2019-05-12T08:12:23.797Z,102855.57
2019-05-12T08:14:54.213Z,102868.02
2019-05-12T08:17:24.608Z,102865.13
2019-05-12T08:19:54.106Z,102870.95
2019-05-12T08:22:25.030Z,102871.68
2019-05-12T08:24:53.853Z,102871.15
2019-05-12T08:27:23.413Z,102870.69
2019-05-12T08:30:00.821Z,102873.41
2019-05-12T08:32:23.414Z,102870.30
2019-05-12T08:34:58.639Z,102873.97
2019-05-12T08:37:27.464Z,102880.96
2019-05-12T08:40:03.439Z,102879.95
2019-05-12T08:42:27.232Z,102878.73
2019-05-12T08:44:57.374Z,102871.30
2019-05-12T08:47:28.997Z,102873.14
2019-05-12T08:49:58.722Z,102876.69
2019-05-12T08:52:30.600Z,102888.88
2019-05-12T08:54:58.565Z,102888.09
2019-05-12T08:57:34.925Z,102897.20
2019-05-12T09:00:06.707Z,102887.53
2019-05-12T09:02:34.297Z,102889.76
2019-05-12T09:05:04.707Z,102897.31
2019-05-12T09:07:35.804Z,102907.44
2019-05-12T09:10:05.317Z,102905.15
2019-05-12T09:12:34.159Z,102905.94
2019-05-12T09:15:04.756Z,102898.98
2019-05-12T09:17:37.245Z,102895.92
2019-05-12T09:20:08.358Z,102900.96
2019-05-12T09:22:35.226Z,102903.80
2019-05-12T09:25:08.237Z,102905.52
2019-05-12T09:27:39.618Z,102915.77
2019-05-12T09:30:09.634Z,102908.95
2019-05-12T09:32:39.182Z,102918.41
2019-05-12T09:35:07.804Z,102915.47
2019-05-12T09:37:40.078Z,102925.83
2019-05-12T09:40:08.401Z,102924.46
2019-05-12T09:42:37.189Z,102916.83
2019-05-12T09:45:10.339Z,102916.78
2019-05-12T09:47:40.416Z,102919.45
2019-05-12T09:50:14.718Z,102923.42
2019-05-12T09:52:39.918Z,102928.55
2019-05-12T09:55:09.397Z,102917.19
2019-05-12T10:04:19.557Z,102937.16
2019-05-12T10:06:48.671Z,102937.25
2019-05-12T10:09:19.926Z,102937.55
2019-05-12T10:11:51.905Z,102931.72
2019-05-12T10:14:18.825Z,102932.70
2019-05-12T10:16:49.732Z,102938.43
2019-05-12T10:19:18.350Z,102946.68
2019-05-12T10:21:49.130Z,102938.40
2019-05-12T10:24:18.094Z,102942.94
2019-05-12T10:26:49.422Z,102945.80
2019-05-12T10:29:20.762Z,102951.35
2019-05-12T10:31:48.621Z,102940.40
2019-05-12T10:37:47.362Z,102956.91
2019-05-12T10:40:16.845Z,102946.67
2019-05-12T10:42:49.336Z,102943.16
2019-05-12T10:45:20.497Z,102951.47
2019-05-12T10:47:47.772Z,102937.92
2019-05-12T10:50:17.700Z,102946.98
2019-05-12T10:52:46.653Z,102957.72
2019-05-12T10:55:15.831Z,102963.62
2019-05-12T10:57:47.276Z,102966.44
2019-05-12T11:00:19.615Z,102959.31
2019-05-12T11:02:49.294Z,102959.30
2019-05-12T11:05:26.086Z,102955.41
2019-05-12T11:08:06.545Z,102959.53
2019-05-12T11:14:20.339Z,102956.69
2019-05-12T11:17:02.154Z,102961.73
2019-05-12T11:19:29.576Z,102955.87
2019-05-12T11:22:03.513Z,102958.06
2019-05-12T11:24:33.725Z,102961.41
2019-05-12T11:27:04.979Z,102968.48
2019-05-12T11:29:45.664Z,102980.07
2019-05-12T11:32:06.697Z,102972.20
2019-05-12T11:34:35.772Z,102978.91
2019-05-12T11:37:05.197Z,102983.65
2019-05-12T11:39:44.521Z,102989.34
2019-05-12T11:48:05.945Z,102998.73
2019-05-12T11:50:34.805Z,103006.95
2019-05-12T11:53:04.399Z,103009.55
2019-05-12T11:55:34.956Z,103011.44
2019-05-12T11:58:11.278Z,103013.63
2019-05-12T12:00:37.306Z,103011.76
2019-05-12T12:03:12.951Z,103003.84
2019-05-12T12:05:39.491Z,103016.05
2019-05-12T12:08:48.086Z,103019.11
2019-05-12T12:11:24.289Z,103041.02
2019-05-12T12:14:40.233Z,103021.95
2019-05-12T12:24:13.830Z,103030.81
2019-05-12T12:26:44.559Z,103036.13
2019-05-12T12:29:13.796Z,103047.20
2019-05-12T12:31:48.614Z,103034.34
2019-05-12T12:34:23.539Z,103036.22
2019-05-12T12:36:48.341Z,103024.80
2019-05-12T12:39:17.656Z,103044.38
2019-05-12T12:41:58.399Z,103045.97
2019-05-12T12:44:17.632Z,103055.84
2019-05-12T12:46:51.288Z,103050.03
2019-05-12T12:49:18.050Z,103064.87
2019-05-12T12:51:47.057Z,103059.00
2019-05-12T12:54:15.964Z,103064.01
2019-05-12T12:56:44.826Z,103061.86
2019-05-12T12:59:14.661Z,103064.67
2019-05-12T13:01:44.268Z,103063.59
2019-05-12T13:04:13.399Z,103060.63
2019-05-12T13:06:43.724Z,103067.76
2019-05-12T13:09:18.263Z,103062.69
2019-05-12T13:11:44.438Z,103082.69
2019-05-12T13:14:13.676Z,103072.86
2019-05-12T13:16:43.658Z,103063.27
2019-05-12T13:19:16.897Z,103071.61
2019-05-12T13:21:43.955Z,103069.33
2019-05-12T13:24:12.899Z,103076.30
2019-05-12T13:26:43.640Z,103076.86
2019-05-12T13:29:13.390Z,103073.96
2019-05-12T13:31:46.517Z,103084.12
2019-05-12T13:34:14.423Z,103083.53
2019-05-12T13:36:44.175Z,103080.00
2019-05-12T13:39:17.491Z,103083.75
2019-05-12T13:41:50.459Z,103089.30
2019-05-12T13:44:17.643Z,103092.67
2019-05-12T13:46:48.909Z,103101.52
2019-05-12T13:49:17.210Z,103094.45
2019-05-12T13:51:48.330Z,103089.36
2019-05-12T13:54:20.113Z,103095.34
2019-05-12T13:56:47.977Z,103102.64
2019-05-12T13:59:21.004Z,103090.30
2019-05-12T14:05:31.754Z,103100.23
2019-05-12T14:11:29.219Z,103118.25
2019-05-12T14:13:58.273Z,103119.36
2019-05-12T14:16:27.169Z,103124.80
2019-05-12T14:18:59.212Z,103107.52
2019-05-12T14:21:26.855Z,103111.73
2019-05-12T14:23:56.500Z,103121.45
2019-05-12T14:26:26.107Z,103125.59
2019-05-12T14:28:54.944Z,103148.39
2019-05-12T14:31:30.129Z,103141.97
2019-05-12T14:33:54.430Z,103139.55
2019-05-12T14:36:26.714Z,103135.66
2019-05-12T14:38:54.062Z,103134.68
2019-05-12T14:41:26.491Z,103129.23
2019-05-12T14:44:01.414Z,103128.83
2019-05-12T14:46:24.269Z,103143.89
2019-05-12T14:48:54.257Z,103135.20
2019-05-12T14:51:24.586Z,103141.09
2019-05-12T14:53:53.678Z,103136.36
2019-05-12T14:56:23.395Z,103140.72
2019-05-12T14:58:56.428Z,103153.62
2019-05-12T15:04:51.119Z,103148.48
2019-05-12T15:07:20.163Z,103147.41
2019-05-12T15:09:55.710Z,103152.34
2019-05-12T15:12:19.633Z,103155.14
2019-05-12T15:14:48.431Z,103156.45
2019-05-12T15:17:22.393Z,103163.30
2019-05-12T15:22:24.522Z,103150.47
2019-05-12T15:24:58.729Z,103153.89
2019-05-12T15:27:41.075Z,103160.38
2019-05-12T15:29:59.416Z,103159.12
2019-05-12T15:32:27.291Z,103156.28
2019-05-12T15:34:56.136Z,103147.31
2019-05-12T15:37:29.050Z,103166.30
2019-05-12T15:40:23.670Z,103161.04
2019-05-12T15:42:55.050Z,103162.33
2019-05-12T15:45:43.811Z,103155.98
2019-05-12T15:48:14.690Z,103162.22
2019-05-12T15:54:14.380Z,103163.97
2019-05-12T15:56:42.362Z,103171.28
2019-05-12T15:59:11.269Z,103184.86
2019-05-12T16:01:40.260Z,103184.22
2019-05-12T16:04:11.854Z,103192.95
2019-05-12T16:06:44.703Z,103192.39
2019-05-12T16:09:10.560Z,103191.61
2019-05-12T16:11:39.444Z,103188.31
2019-05-12T16:14:08.366Z,103196.27
2019-05-12T16:16:42.456Z,103206.45
2019-05-12T16:19:09.164Z,103203.85
2019-05-12T16:21:38.094Z,103217.70
2019-05-12T16:24:10.937Z,103224.71
2019-05-12T16:26:42.915Z,103216.50
2019-05-12T16:29:08.211Z,103211.17
2019-05-12T16:31:39.385Z,103223.81
2019-05-12T16:34:07.640Z,103222.41
2019-05-12T16:36:41.101Z,103221.93
2019-05-12T16:39:08.501Z,103219.33
2019-05-12T16:41:37.451Z,103221.36
2019-05-12T16:44:09.534Z,103227.66
2019-05-12T16:46:36.853Z,103220.08
2019-05-12T16:49:05.725Z,103213.89
2019-05-12T16:51:34.951Z,103230.16
2019-05-12T16:54:03.911Z,103236.91
2019-05-12T16:56:33.939Z,103241.16
2019-05-12T16:59:07.284Z,103241.45
2019-05-12T17:01:34.576Z,103243.13
2019-05-12T17:04:04.315Z,103249.39
2019-05-12T17:06:36.786Z,103244.00
2019-05-12T17:09:06.206Z,103245.33
2019-05-12T17:11:37.216Z,103249.45
2019-05-12T17:14:05.831Z,103254.88
2019-05-12T17:16:41.939Z,103251.06
2019-05-12T17:19:10.213Z,103254.99
2019-05-12T17:21:38.122Z,103261.86
2019-05-12T17:24:07.121Z,103262.12
2019-05-12T17:26:36.057Z,103263.43
2019-05-12T17:29:05.078Z,103264.95
2019-05-12T17:31:34.268Z,103260.51
2019-05-12T17:34:08.161Z,103270.70
2019-05-12T17:36:34.554Z,103271.95
2019-05-12T17:39:04.801Z,103270.70
2019-05-12T17:45:18.658Z,103274.06
2019-05-12T17:47:45.435Z,103286.42
2019-05-12T17:50:14.431Z,103292.88
2019-05-12T17:52:45.160Z,103295.78
2019-05-12T17:55:14.938Z,103297.91
2019-05-12T17:57:44.464Z,103304.17
2019-05-12T18:00:14.623Z,103312.41
2019-05-12T18:02:49.406Z,103311.06
2019-05-12T18:05:17.161Z,103313.73
2019-05-12T18:07:50.817Z,103316.36
2019-05-12T18:10:17.039Z,103318.25
2019-05-12T18:12:46.085Z,103323.77
2019-05-12T18:15:15.595Z,103325.59
2019-05-12T18:17:49.625Z,103334.19
2019-05-12T18:20:15.690Z,103334.42
2019-05-12T18:22:45.243Z,103333.47
2019-05-12T18:25:21.948Z,103340.55
2019-05-12T18:27:50.605Z,103346.45
2019-05-12T18:30:34.499Z,103351.44
2019-05-12T18:33:05.027Z,103351.04
2019-05-12T18:35:34.092Z,103361.72
2019-05-12T18:38:07.941Z,103362.93
2019-05-12T18:40:34.738Z,103361.56
2019-05-12T18:43:03.982Z,103354.53
2019-05-12T18:45:34.082Z,103363.86
2019-05-12T18:48:10.608Z,103369.44
2019-05-12T18:50:34.371Z,103370.95
2019-05-12T18:53:03.375Z,103374.11
2019-05-12T18:55:35.813Z,103379.84
2019-05-12T18:58:04.310Z,103387.98
2019-05-12T19:00:33.907Z,103370.59
2019-05-12T19:03:06.140Z,103380.03
2019-05-12T19:05:34.542Z,103387.38
2019-05-12T19:08:03.791Z,103389.63
2019-05-12T19:10:33.424Z,103380.88
2019-05-12T19:13:06.449Z,103382.66
2019-05-12T19:15:33.523Z,103388.76
2019-05-12T19:18:03.729Z,103389.27
2019-05-12T19:20:36.336Z,103389.27
2019-05-12T19:23:03.759Z,103410.84
2019-05-12T19:25:35.924Z,103410.84
2019-05-12T19:28:07.904Z,103407.59
2019-05-12T19:30:34.495Z,103424.34
2019-05-12T19:33:06.396Z,103420.94
2019-05-12T19:35:37.954Z,103430.36
2019-05-12T19:38:07.823Z,103431.53
2019-05-12T19:44:10.240Z,103440.52
2019-05-12T19:47:02.286Z,103441.39
2019-05-12T19:49:46.646Z,103449.47
2019-05-12T19:52:04.240Z,103452.72
2019-05-12T19:54:36.783Z,103451.17
2019-05-12T19:57:04.851Z,103446.61
2019-05-12T19:59:34.229Z,103455.58
2019-05-12T20:05:34.363Z,103452.39
2019-05-12T20:08:06.862Z,103446.87
2019-05-12T20:10:58.372Z,103455.59
2019-05-12T20:13:29.711Z,103455.16
2019-05-12T20:15:58.418Z,103454.42
2019-05-12T20:18:27.614Z,103460.25
2019-05-12T20:21:29.942Z,103455.88
2019-05-12T20:23:59.077Z,103458.19
2019-05-12T20:26:33.074Z,103460.41
2019-05-12T20:28:59.092Z,103458.27
2019-05-12T20:31:28.082Z,103463.14
2019-05-12T20:34:04.396Z,103459.42
2019-05-12T20:36:28.022Z,103467.84
2019-05-12T20:38:56.882Z,103467.43
2019-05-12T20:41:26.801Z,103478.98
2019-05-12T20:47:23.560Z,103474.22
2019-05-12T20:49:52.895Z,103485.80
2019-05-12T20:52:23.776Z,103490.74
2019-05-12T20:54:55.336Z,103491.27
2019-05-12T20:57:27.258Z,103491.20
2019-05-12T21:00:04.742Z,103491.54
2019-05-12T21:02:29.296Z,103493.27
2019-05-12T21:05:00.841Z,103495.02
2019-05-12T21:07:28.861Z,103500.14
2019-05-12T21:09:58.289Z,103499.81
2019-05-12T21:12:27.793Z,103513.92
2019-05-12T21:15:12.372Z,103512.21
2019-05-12T21:17:39.704Z,103508.25
2019-05-12T21:19:59.482Z,103510.44
2019-05-12T21:22:28.674Z,103505.86
2019-05-12T21:24:57.509Z,103506.70
2019-05-12T21:27:26.716Z,103508.08
2019-05-12T21:30:00.775Z,103513.47
2019-05-12T21:32:26.172Z,103513.02
2019-05-12T21:34:57.856Z,103521.02
2019-05-12T21:37:45.710Z,103514.45
2019-05-12T21:40:14.675Z,103523.21
2019-05-12T21:42:44.592Z,103533.83
2019-05-12T21:45:14.513Z,103533.06
2019-05-12T21:47:44.537Z,103528.23
2019-05-12T21:50:14.811Z,103533.53
2019-05-12T21:52:44.607Z,103534.96
2019-05-12T21:55:21.789Z,103544.19
2019-05-12T21:57:44.741Z,103541.20
2019-05-12T22:00:23.726Z,103550.78
2019-05-12T22:02:53.409Z,103547.75
2019-05-12T22:05:47.196Z,103559.77
2019-05-12T22:07:54.637Z,103556.28
2019-05-12T22:10:28.975Z,103556.23
2019-05-12T22:12:54.384Z,103563.34
2019-05-12T22:15:28.542Z,103564.80
2019-05-12T22:18:04.808Z,103562.33
2019-05-12T22:20:35.991Z,103561.31
2019-05-12T22:23:11.823Z,103562.38
2019-05-12T22:25:43.334Z,103556.27
2019-05-12T22:28:13.472Z,103568.83
2019-05-12T22:30:43.827Z,103579.13
2019-05-12T22:33:13.847Z,103579.70
2019-05-12T22:35:44.290Z,103585.98
2019-05-12T22:38:19.024Z,103587.72
2019-05-12T22:40:44.024Z,103587.77
2019-05-12T22:43:14.217Z,103590.41
2019-05-12T22:45:44.656Z,103590.45
2019-05-12T22:48:14.338Z,103582.55
2019-05-12T22:50:43.598Z,103595.04
2019-05-12T22:53:13.439Z,103595.97
2019-05-12T22:55:42.561Z,103591.16
2019-05-12T22:58:18.231Z,103593.30
2019-05-12T23:00:44.428Z,103597.75
2019-05-12T23:03:14.956Z,103593.28
2019-05-12T23:05:43.677Z,103596.86
2019-05-12T23:08:14.055Z,103597.81
2019-05-12T23:10:51.351Z,103596.16
2019-05-12T23:13:13.932Z,103598.85
2019-05-12T23:15:47.541Z,103595.83
2019-05-12T23:18:13.831Z,103601.91
2019-05-12T23:20:43.827Z,103601.54
2019-05-12T23:23:15.378Z,103599.31
2019-05-12T23:25:45.426Z,103598.91
2019-05-12T23:28:14.625Z,103605.11
2019-05-12T23:30:48.320Z,103601.21
2019-05-12T23:33:14.334Z,103601.73
2019-05-12T23:35:44.311Z,103601.27
2019-05-12T23:38:18.889Z,103605.27
2019-05-12T23:40:44.208Z,103607.91
2019-05-12T23:43:14.522Z,103610.53
2019-05-12T23:45:44.431Z,103609.64
2019-05-12T23:48:14.382Z,103608.34
2019-05-12T23:50:43.945Z,103605.34
2019-05-12T23:53:13.973Z,103601.38
2019-05-12T23:55:43.785Z,103594.36
2019-05-12T23:58:14.425Z,103598.33
